createdAt,value
2023-01-23T00:00:35.154Z,29.58
2023-01-23T00:05:36.676Z,24.48
2023-01-23T00:10:38.756Z,26.65
2023-01-23T00:15:40.365Z,28.23
2023-01-23T00:20:42.577Z,23.15
2023-01-23T00:25:44.111Z,27.58
2023-01-23T00:30:45.670Z,26.40
2023-01-23T00:35:47.337Z,29.05
2023-01-23T00:40:48.887Z,28.40
2023-01-23T00:45:50.781Z,26.05
2023-01-23T00:50:53.079Z,28.33
2023-01-23T00:55:57.910Z,27.10
2023-01-23T01:00:59.513Z,26.27
2023-01-23T01:06:01.216Z,30.20
2023-01-23T01:11:03.889Z,29.27
2023-01-23T01:16:06.645Z,26.92
2023-01-23T01:21:12.311Z,28.15
2023-01-23T01:26:14.005Z,24.02
2023-01-23T01:31:17.820Z,28.17
2023-01-23T01:36:22.285Z,32.72
2023-01-23T01:41:23.888Z,25.35
2023-01-23T01:46:27.908Z,22.95
2023-01-23T01:51:53.360Z,32.50
2023-01-23T01:57:13.836Z,26.77
2023-01-23T02:02:20.939Z,29.48
2023-01-23T02:07:33.606Z,20.23
2023-01-23T02:12:35.785Z,26.23
2023-01-23T02:17:37.928Z,26.70
2023-01-23T02:22:48.482Z,27.17
2023-01-23T02:27:50.359Z,28.45
2023-01-23T02:32:52.013Z,28.35
2023-01-23T02:38:02.023Z,23.45
2023-01-23T02:43:11.252Z,25.10
2023-01-23T02:48:17.716Z,24.85
2023-01-23T02:53:19.392Z,25.55
2023-01-23T02:58:21.160Z,24.90
2023-01-23T03:03:24.229Z,23.75
2023-01-23T03:08:25.792Z,29.30
2023-01-23T03:13:27.406Z,25.60
2023-01-23T03:18:29.238Z,25.33
2023-01-23T03:23:31.117Z,29.90
2023-01-23T03:28:32.907Z,25.33
2023-01-23T03:33:34.548Z,28.33
2023-01-23T03:38:36.696Z,27.08
2023-01-23T03:43:41.227Z,27.05
2023-01-23T03:48:43.050Z,30.20
2023-01-23T03:53:44.739Z,27.70
2023-01-23T03:58:47.086Z,29.55
2023-01-23T04:03:49.811Z,26.95
2023-01-23T04:08:51.550Z,27.30
2023-01-23T04:13:54.578Z,24.50
2023-01-23T04:18:58.213Z,27.30
2023-01-23T04:24:01.157Z,30.55
2023-01-23T04:29:03.036Z,27.40
2023-01-23T04:34:04.804Z,29.90
2023-01-23T04:39:06.809Z,25.38
2023-01-23T04:44:10.202Z,28.73
2023-01-23T04:49:12.137Z,27.35
2023-01-23T04:54:14.191Z,29.88
2023-01-23T04:59:17.529Z,29.88
2023-01-23T05:04:19.955Z,30.73
2023-01-23T05:09:22.868Z,30.15
2023-01-23T05:14:27.452Z,33.95
2023-01-23T05:19:30.161Z,34.05
2023-01-23T05:24:35.396Z,34.85
2023-01-23T05:29:39.781Z,31.55
2023-01-23T05:34:47.838Z,37.83
2023-01-23T05:39:56.857Z,32.08
2023-01-23T05:45:00.254Z,36.80
2023-01-23T05:50:07.339Z,36.20
2023-01-23T05:55:11.655Z,35.45
2023-01-23T06:00:15.755Z,32.63
2023-01-23T06:05:22.302Z,32.05
2023-01-23T06:10:37.779Z,34.30
2023-01-23T06:15:39.391Z,33.13
2023-01-23T06:20:45.763Z,32.40
2023-01-23T06:25:47.749Z,36.95
2023-01-23T06:30:49.626Z,32.72
2023-01-23T06:36:05.119Z,30.23
2023-01-23T06:41:08.872Z,31.75
2023-01-23T06:46:12.908Z,37.20
2023-01-23T06:51:14.711Z,35.00
2023-01-23T06:56:19.279Z,31.83
2023-01-23T07:01:22.344Z,25.02
2023-01-23T07:06:51.757Z,33.97
2023-01-23T07:11:54.897Z,28.48
2023-01-23T07:16:56.566Z,30.85
2023-01-23T07:21:59.601Z,27.73
2023-01-23T07:27:01.556Z,24.40
2023-01-23T07:32:03.181Z,24.52
2023-01-23T07:37:05.104Z,22.55
2023-01-23T07:42:06.720Z,21.48
2023-01-23T07:47:08.276Z,26.17
2023-01-23T07:52:09.913Z,22.52
2023-01-23T07:57:11.451Z,19.35
2023-01-23T08:02:13.235Z,21.40
2023-01-23T08:07:14.802Z,22.85
2023-01-23T08:12:16.427Z,25.05
2023-01-23T08:17:18.157Z,20.95
2023-01-23T08:22:19.723Z,20.05
2023-01-23T08:27:21.747Z,21.33
2023-01-23T08:32:23.369Z,22.73
2023-01-23T08:37:25.186Z,19.08
2023-01-23T08:42:26.784Z,21.63
2023-01-23T08:47:28.378Z,22.25
2023-01-23T08:52:30.182Z,27.10
2023-01-23T08:57:31.834Z,21.58
2023-01-23T09:02:33.571Z,22.38
2023-01-23T09:07:35.237Z,16.83
2023-01-23T09:12:36.803Z,18.80
2023-01-23T09:17:38.430Z,18.92
2023-01-23T09:22:40.010Z,18.63
2023-01-23T09:27:41.679Z,18.63
2023-01-23T09:32:43.369Z,18.00
2023-01-23T09:37:44.885Z,18.42
2023-01-23T09:42:46.780Z,18.77
2023-01-23T09:47:53.284Z,18.23
2023-01-23T09:53:17.236Z,15.52
2023-01-23T09:58:24.737Z,16.15
2023-01-23T10:03:31.688Z,18.17
2023-01-23T10:08:48.340Z,15.30
2023-01-23T10:14:24.213Z,17.00
2023-01-23T10:20:02.797Z,16.55
2023-01-23T10:25:25.391Z,17.15
2023-01-23T10:30:34.660Z,15.90
2023-01-23T10:35:44.614Z,17.30
2023-01-23T10:40:48.127Z,14.10
2023-01-23T10:45:50.304Z,12.63
2023-01-23T10:50:51.985Z,13.85
2023-01-23T10:55:57.659Z,15.68
2023-01-23T11:01:00.127Z,15.45
2023-01-23T11:06:16.533Z,12.07
2023-01-23T11:11:22.238Z,9.38
2023-01-23T11:16:24.013Z,10.77
2023-01-23T11:21:32.555Z,11.02
2023-01-23T11:26:36.576Z,11.05
2023-01-23T11:31:39.951Z,8.73
2023-01-23T11:36:45.452Z,7.95
2023-01-23T11:41:47.543Z,7.55
2023-01-23T11:47:13.646Z,7.05
2023-01-23T11:52:41.593Z,7.22
2023-01-23T11:58:20.989Z,7.30
2023-01-23T12:03:47.900Z,5.53
2023-01-23T12:09:11.250Z,6.05
2023-01-23T12:14:30.885Z,7.22
2023-01-23T12:19:32.468Z,6.88
2023-01-23T12:25:14.645Z,8.32
2023-01-23T12:30:42.930Z,7.43
2023-01-23T12:35:56.522Z,4.78
2023-01-23T12:41:17.065Z,7.22
2023-01-23T12:46:25.841Z,5.75
2023-01-23T12:51:37.227Z,8.45
2023-01-23T12:56:39.730Z,5.88
2023-01-23T13:01:53.257Z,4.75
2023-01-23T13:07:42.384Z,6.13
2023-01-23T13:12:44.477Z,5.75
2023-01-23T13:17:58.044Z,6.00
2023-01-23T13:23:18.163Z,5.05
2023-01-23T13:28:44.004Z,5.40
2023-01-23T13:33:47.192Z,5.15
2023-01-23T13:39:03.248Z,5.63
2023-01-23T13:44:24.850Z,6.18
2023-01-23T14:21:40.813Z,6.18
2023-01-23T14:26:49.707Z,6.05
2023-01-23T14:31:51.886Z,7.70
2023-01-23T14:37:12.195Z,6.88
2023-01-23T14:42:31.772Z,8.07
2023-01-23T14:47:39.417Z,8.23
2023-01-23T14:52:42.570Z,7.63
2023-01-23T14:57:44.249Z,9.38
2023-01-23T15:02:47.809Z,6.70
2023-01-23T15:07:55.527Z,12.07
2023-01-23T15:13:00.817Z,8.75
2023-01-23T15:18:05.847Z,12.90
2023-01-23T15:23:31.801Z,8.75
2023-01-23T15:28:54.133Z,13.50
2023-01-23T15:33:57.967Z,14.73
2023-01-23T15:38:59.837Z,9.00
2023-01-23T15:44:01.363Z,12.73
2023-01-23T15:49:04.267Z,9.05
2023-01-23T15:54:16.686Z,11.27
2023-01-23T15:59:19.352Z,11.52
2023-01-23T16:04:20.998Z,51.08
2023-01-23T16:09:31.459Z,23.52
2023-01-23T16:14:33.038Z,20.48
2023-01-23T16:19:34.599Z,51.97
2023-01-23T16:24:39.422Z,23.92
2023-01-23T16:29:40.997Z,34.03
2023-01-23T16:34:42.696Z,45.67
2023-01-23T16:39:46.293Z,19.35
2023-01-23T16:44:47.977Z,22.75
2023-01-23T16:49:53.016Z,20.90
2023-01-23T16:54:55.519Z,17.63
2023-01-23T16:59:58.188Z,17.80
2023-01-23T17:04:59.800Z,20.30
2023-01-23T17:10:01.397Z,20.20
2023-01-23T17:15:03.910Z,18.25
2023-01-23T17:20:06.098Z,16.92
2023-01-23T17:25:16.062Z,22.20
2023-01-23T17:30:22.939Z,22.13
2023-01-23T17:35:34.636Z,24.98
2023-01-23T17:40:36.185Z,25.17
2023-01-23T17:45:38.269Z,30.08
2023-01-23T17:50:45.051Z,22.10
2023-01-23T18:00:51.239Z,21.13
2023-01-23T18:05:53.086Z,20.55
2023-01-23T18:10:55.027Z,11.40
2023-01-23T18:16:02.544Z,13.80
2023-01-23T18:21:12.237Z,15.23
2023-01-23T18:26:28.662Z,13.15
2023-01-23T18:31:51.487Z,16.17
2023-01-23T18:37:06.537Z,14.73
2023-01-23T18:42:28.876Z,18.95
2023-01-23T18:47:31.092Z,16.23
2023-01-23T18:52:54.592Z,15.68
2023-01-23T18:58:29.277Z,14.98
2023-01-23T19:03:41.818Z,14.07
2023-01-23T19:08:43.590Z,11.57
2023-01-23T19:13:55.452Z,12.63
2023-01-23T19:19:20.536Z,15.00
2023-01-23T19:24:22.408Z,20.58
2023-01-23T19:29:24.251Z,17.13
2023-01-23T19:34:25.785Z,13.85
2023-01-23T19:39:27.347Z,12.43
2023-01-23T19:44:29.097Z,14.88
2023-01-23T19:49:30.860Z,23.08
2023-01-23T19:54:32.460Z,14.50
2023-01-23T19:59:34.016Z,10.23
2023-01-23T20:04:35.582Z,10.45
2023-01-23T20:09:37.205Z,11.95
2023-01-23T20:14:38.770Z,12.07
2023-01-23T20:19:40.334Z,14.02
2023-01-23T20:24:42.087Z,13.50
2023-01-23T20:29:43.664Z,13.95
2023-01-23T20:34:45.331Z,12.27
2023-01-23T20:39:46.917Z,13.35
2023-01-23T20:44:48.524Z,14.77
2023-01-23T20:49:50.443Z,14.30
2023-01-23T20:54:52.007Z,12.45
2023-01-23T20:59:53.633Z,10.40
2023-01-23T21:04:55.173Z,14.45
2023-01-23T21:09:56.677Z,16.67
2023-01-23T21:14:58.221Z,12.05
2023-01-23T21:19:59.786Z,13.45
2023-01-23T21:25:01.634Z,17.00
2023-01-23T21:30:03.344Z,13.02
2023-01-23T21:35:05.200Z,12.73
2023-01-23T21:40:07.798Z,13.73
2023-01-23T21:45:09.660Z,10.63
2023-01-23T21:50:11.609Z,14.32
2023-01-23T21:55:13.150Z,14.60
2023-01-23T22:00:15.113Z,13.20
2023-01-23T22:05:16.685Z,15.95
2023-01-23T22:10:18.387Z,14.43
2023-01-23T22:15:20.404Z,15.13
2023-01-23T22:20:22.203Z,12.32
2023-01-23T22:25:23.900Z,13.90
2023-01-23T22:30:25.499Z,14.13
2023-01-23T22:35:27.098Z,14.82
2023-01-23T22:40:28.724Z,14.93
2023-01-23T22:45:30.725Z,15.25
2023-01-23T22:50:32.376Z,12.07
2023-01-23T22:55:33.978Z,13.43
2023-01-23T23:00:35.543Z,13.80
2023-01-23T23:05:37.185Z,17.48
2023-01-23T23:10:38.854Z,16.58
2023-01-23T23:15:40.375Z,15.82
2023-01-23T23:20:42.016Z,12.63
2023-01-23T23:25:43.640Z,13.85
2023-01-23T23:30:45.166Z,11.88
2023-01-23T23:35:47.155Z,13.77
2023-01-23T23:41:02.881Z,10.82
2023-01-23T23:46:06.443Z,11.48
2023-01-23T23:51:10.721Z,11.25
2023-01-23T23:56:32.533Z,10.10
